Adair, Illinois
Current Conditions -  °F | °C
As of 3:55 PM on Monday 22 Dec 2014 (Local Time) from KMQB Reporting Station
Haze Haze  
Wind Chill: 36°   Ceiling: 400
Heat Index: 41°   Visibility: 3mi
Dew Point: 41°   Wind: 8mph
Humidity: 100%   Direction: 130°SE
Pressure: 29.58"   Gusts: NA
Location:  40.42°N, 90.5°W
Report Text: KMQB 222155Z AUTO 13007KT 3SM BR OVC004 05/05 A2958 RMK AO2 T00520052
Loading
Personal Weather Stations






























Interactive Weather Map New forecast layout! Learn more

10-Day Weather Forecast

Advertisements
Track Severe Weather on mobile